Time;durP1;ratioP1;P1;durP2;ratioP2;P2;SDS_P1;SDS_P2;PMS_P1;PMS_P2;Temp;Humidity;BMP_temperature;BMP_pressure;BME280_temperature;BME280_humidity;BME280_pressure;Samples;Min_cycle;Max_cycle;Signal;HPM_P1;HPM_P2
2021/12/18 00:01:01;;;;;;;11.03;6.53;;;6.50;99.90;;;;;;5052744;28;20239;-71
2021/12/18 00:03:27;;;;;;;7.53;3.57;;;6.50;99.90;;;;;;5054394;28;20258;-71
2021/12/18 00:05:53;;;;;;;7.40;4.20;;;6.60;99.90;;;;;;5033578;28;20264;-72
2021/12/18 00:08:18;;;;;;;8.50;5.00;;;6.60;99.90;;;;;;5030993;28;20233;-71
2021/12/18 00:10:45;;;;;;;6.03;3.57;;;6.60;99.90;;;;;;5031096;28;20212;-70
2021/12/18 00:13:11;;;;;;;5.03;3.30;;;6.70;99.90;;;;;;5031296;28;20223;-70
2021/12/18 00:15:37;;;;;;;5.87;3.07;;;6.70;99.90;;;;;;5031672;28;20568;-71
2021/12/18 00:18:02;;;;;;;6.43;3.60;;;6.60;99.90;;;;;;5031222;28;20164;-71
2021/12/18 00:20:29;;;;;;;7.70;3.67;;;6.60;99.90;;;;;;5032354;28;20192;-70
2021/12/18 00:22:55;;;;;;;5.80;3.30;;;6.60;99.90;;;;;;5036379;28;20225;-70
2021/12/18 00:25:21;;;;;;;6.83;3.83;;;6.60;99.90;;;;;;5033912;28;20171;-70
2021/12/18 00:27:47;;;;;;;7.40;3.90;;;6.60;99.90;;;;;;5034029;28;20199;-71
2021/12/18 00:30:13;;;;;;;5.23;3.50;;;6.60;99.90;;;;;;5051917;28;20235;-70
2021/12/18 00:32:38;;;;;;;4.27;2.93;;;6.60;99.90;;;;;;5034208;28;20214;-69
2021/12/18 00:35:04;;;;;;;5.40;2.87;;;6.40;99.90;;;;;;5033881;28;20180;-71
2021/12/18 00:37:30;;;;;;;17.00;9.17;;;6.40;99.90;;;;;;5034068;28;20176;-71
2021/12/18 00:39:58;;;;;;;17.27;9.40;;;6.40;99.90;;;;;;5033417;28;20175;-73
2021/12/18 00:42:45;;;;;;;9.83;4.47;;;6.50;99.90;;;;;;5033890;28;20469;-71
2021/12/18 00:45:16;;;;;;;4.97;2.90;;;6.50;99.90;;;;;;5033836;28;20692;-69
2021/12/18 00:47:44;;;;;;;4.03;2.73;;;6.50;99.90;;;;;;5051643;28;20168;-71
2021/12/18 00:50:15;;;;;;;4.97;2.90;;;6.50;99.90;;;;;;5033821;28;20619;-71
2021/12/18 00:52:41;;;;;;;4.87;3.43;;;6.50;99.90;;;;;;5034033;28;20286;-73
2021/12/18 00:55:07;;;;;;;5.83;3.37;;;6.50;99.90;;;;;;5033820;28;20622;-70
2021/12/18 00:57:32;;;;;;;5.23;3.40;;;6.50;99.90;;;;;;5033839;28;20172;-71
2021/12/18 01:00:03;;;;;;;5.90;3.00;;;6.40;99.90;;;;;;5063251;28;20209;-71
2021/12/18 01:02:29;;;;;;;4.83;2.80;;;6.40;99.90;;;;;;5052615;28;20532;-71
2021/12/18 01:04:56;;;;;;;4.13;2.70;;;6.50;99.90;;;;;;5072058;28;20542;-68
2021/12/18 01:07:22;;;;;;;3.87;2.40;;;6.50;99.90;;;;;;5055962;28;20219;-68
2021/12/18 01:12:38;;;;;;;5.37;3.00;;;6.40;99.90;;;;;;5069905;28;20906;-69
2021/12/18 01:23:05;;;;;;;3.80;2.47;;;6.50;99.90;;;;;;5068427;28;20177;-69
2021/12/18 01:25:31;;;;;;;3.63;2.70;;;6.40;99.90;;;;;;5051373;28;20556;-69
2021/12/18 01:27:57;;;;;;;4.40;2.63;;;6.40;99.90;;;;;;5053259;28;20339;-71
2021/12/18 01:30:22;;;;;;;6.17;2.43;;;6.40;99.90;;;;;;5053476;28;20214;-69
2021/12/18 01:32:49;;;;;;;3.50;2.50;;;6.50;99.90;;;;;;5053320;28;20618;-68
2021/12/18 01:35:15;;;;;;;3.47;2.30;;;6.50;99.90;;;;;;5053368;28;20167;-68
2021/12/18 01:37:42;;;;;;;4.07;2.90;;;6.50;99.90;;;;;;5044560;28;20241;-70
2021/12/18 01:40:08;;;;;;;4.00;2.07;;;6.50;99.90;;;;;;5049570;28;20206;-67
2021/12/18 01:45:24;;;;;;;5.03;2.63;;;6.50;99.90;;;;;;5051587;28;20179;-68
2021/12/18 01:53:19;;;;;;;3.67;2.20;;;6.50;99.90;;;;;;5051386;28;20273;-68
2021/12/18 01:55:44;;;;;;;4.63;2.90;;;6.50;99.90;;;;;;5051125;28;20170;-66
2021/12/18 01:58:11;;;;;;;5.10;2.50;;;6.50;99.90;;;;;;5048529;28;20176;-69
2021/12/18 02:00:40;;;;;;;3.07;2.33;;;6.50;99.90;;;;;;5048610;28;20278;-69
2021/12/18 02:03:06;;;;;;;4.53;3.20;;;6.50;99.90;;;;;;5047623;28;20175;-69
2021/12/18 02:05:32;;;;;;;3.77;2.37;;;6.50;99.90;;;;;;5049057;28;20179;-70
2021/12/18 02:07:58;;;;;;;4.63;2.93;;;6.50;99.90;;;;;;5051109;28;20656;-68
2021/12/18 02:10:28;;;;;;;4.20;2.87;;;6.50;99.90;;;;;;5049718;28;20505;-67
2021/12/18 02:13:08;;;;;;;4.47;2.67;;;6.50;99.90;;;;;;5050145;28;20277;-68
2021/12/18 02:19:35;;;;;;;4.30;2.50;;;6.50;99.90;;;;;;5051426;28;20527;-71
2021/12/18 02:21:21;;;;;;;5.17;3.40;;;6.50;99.90;;;;;;5050747;28;20589;-68
2021/12/18 02:23:46;;;;;;;4.10;2.90;;;6.50;99.90;;;;;;5049495;28;20203;-67
2021/12/18 02:26:12;;;;;;;6.07;3.27;;;6.50;99.90;;;;;;5051108;28;20178;-68
2021/12/18 02:28:40;;;;;;;7.30;3.33;;;6.50;99.90;;;;;;5050780;28;20202;-67
2021/12/18 02:31:06;;;;;;;4.90;2.93;;;6.50;99.90;;;;;;5049810;28;20215;-67
2021/12/18 02:33:32;;;;;;;7.90;3.30;;;6.60;99.90;;;;;;5051210;28;20613;-70
2021/12/18 02:35:59;;;;;;;3.90;3.07;;;6.60;99.90;;;;;;5053048;28;20188;-71
2021/12/18 02:38:44;;;;;;;4.33;2.80;;;6.50;99.90;;;;;;5053517;28;20630;-68
2021/12/18 02:41:36;;;;;;;3.53;2.60;;;6.50;99.90;;;;;;5053975;28;20195;-69
2021/12/18 02:44:03;;;;;;;6.37;3.87;;;6.50;99.90;;;;;;5054495;28;20698;-68
2021/12/18 02:46:29;;;;;;;5.77;3.40;;;6.50;99.90;;;;;;5037408;28;20271;-69
2021/12/18 02:48:56;;;;;;;8.43;4.73;;;6.40;99.90;;;;;;5053209;28;20270;-69
2021/12/18 02:51:23;;;;;;;9.37;5.87;;;6.40;99.90;;;;;;5053326;28;20191;-68
2021/12/18 02:53:52;;;;;;;4.73;3.03;;;6.50;99.90;;;;;;5053067;28;20660;-68
2021/12/18 02:56:23;;;;;;;6.93;3.67;;;6.50;99.90;;;;;;5062049;28;20214;-68
2021/12/18 02:58:50;;;;;;;8.40;4.80;;;6.50;99.90;;;;;;5073524;28;20191;-68
2021/12/18 03:01:19;;;;;;;8.73;5.13;;;6.50;99.90;;;;;;5056526;28;20194;-68
2021/12/18 03:03:45;;;;;;;6.47;3.50;;;6.50;99.90;;;;;;5056316;28;20278;-68
2021/12/18 03:22:50;;;;;;;5.20;3.60;;;6.60;99.90;;;;;;5074713;28;20285;-67
2021/12/18 03:25:19;;;;;;;7.40;4.70;;;6.60;99.90;;;;;;5071065;28;20734;-67
2021/12/18 03:27:45;;;;;;;8.40;3.93;;;6.60;99.90;;;;;;5055826;28;20270;-68
2021/12/18 03:30:12;;;;;;;6.50;3.70;;;6.60;99.90;;;;;;5057585;28;20207;-69
2021/12/18 03:32:37;;;;;;;6.47;4.10;;;6.60;99.90;;;;;;5073902;28;20207;-68
2021/12/18 03:35:04;;;;;;;5.37;4.03;;;6.50;99.90;;;;;;5073641;28;20178;-67
2021/12/18 03:37:30;;;;;;;7.37;4.33;;;6.60;99.90;;;;;;5073371;28;20207;-68
2021/12/18 03:39:56;;;;;;;5.00;3.23;;;6.50;99.90;;;;;;5055169;28;20199;-70
2021/12/18 03:42:21;;;;;;;6.60;3.90;;;6.50;99.90;;;;;;5073608;28;20488;-67
2021/12/18 03:44:48;;;;;;;5.47;3.83;;;6.50;99.90;;;;;;5054674;28;20178;-69
2021/12/18 03:47:13;;;;;;;6.27;3.70;;;6.50;99.90;;;;;;5051611;28;20168;-67
2021/12/18 03:49:39;;;;;;;5.70;3.53;;;6.50;99.90;;;;;;5054906;28;20179;-68
2021/12/18 03:52:05;;;;;;;4.97;3.30;;;6.60;99.90;;;;;;5073180;28;20565;-68
2021/12/18 03:54:31;;;;;;;6.87;3.83;;;6.60;99.90;;;;;;5073180;28;20163;-68
2021/12/18 03:56:56;;;;;;;5.77;3.70;;;6.50;99.90;;;;;;5073258;28;20163;-68
2021/12/18 03:59:22;;;;;;;4.47;3.47;;;6.50;99.90;;;;;;5054960;28;20258;-68
2021/12/18 04:01:47;;;;;;;6.60;4.20;;;6.50;99.90;;;;;;5055291;28;20195;-69
2021/12/18 04:04:13;;;;;;;6.00;3.83;;;6.50;99.90;;;;;;5055236;28;20745;-68
2021/12/18 04:06:39;;;;;;;5.87;3.87;;;6.50;99.90;;;;;;5055228;28;20171;-68
2021/12/18 04:09:06;;;;;;;7.50;4.03;;;6.50;99.90;;;;;;5054956;28;20193;-68
2021/12/18 04:11:31;;;;;;;6.90;4.17;;;6.50;99.90;;;;;;5064330;22;20224;-68
2021/12/18 04:13:57;;;;;;;5.60;4.10;;;6.50;99.90;;;;;;5050794;28;20651;-68
2021/12/18 04:16:23;;;;;;;5.23;3.97;;;6.60;99.90;;;;;;5052890;28;20174;-68
2021/12/18 04:18:48;;;;;;;5.70;3.60;;;6.60;99.90;;;;;;5034422;28;20163;-68
2021/12/18 04:21:14;;;;;;;6.33;4.57;;;6.60;99.90;;;;;;5063058;28;20801;-68
2021/12/18 04:23:40;;;;;;;6.70;4.17;;;6.50;99.90;;;;;;5071346;28;20167;-68
2021/12/18 04:26:06;;;;;;;5.87;4.00;;;6.50;99.90;;;;;;5091020;28;20174;-68
2021/12/18 04:28:32;;;;;;;6.60;3.77;;;6.60;99.90;;;;;;5090911;28;20185;-68
2021/12/18 04:30:57;;;;;;;6.93;4.30;;;6.60;99.90;;;;;;5054521;28;20210;-69
2021/12/18 04:33:23;;;;;;;5.93;3.83;;;6.50;99.90;;;;;;5071978;28;20230;-68
2021/12/18 04:35:49;;;;;;;6.20;3.87;;;6.50;99.90;;;;;;5062312;28;20624;-68
2021/12/18 04:38:15;;;;;;;7.03;4.40;;;6.50;99.90;;;;;;5072268;28;20174;-68
2021/12/18 04:40:42;;;;;;;7.00;4.23;;;6.50;99.90;;;;;;5072330;28;20179;-68
2021/12/18 04:43:08;;;;;;;4.07;2.60;;;6.50;99.90;;;;;;5072523;28;20534;-68
2021/12/18 04:45:33;;;;;;;3.17;2.50;;;6.50;99.90;;;;;;5072181;28;20175;-68
2021/12/18 04:47:59;;;;;;;3.67;2.43;;;6.50;99.90;;;;;;5072162;28;20309;-68
2021/12/18 04:50:25;;;;;;;4.97;2.40;;;6.50;99.90;;;;;;5072218;28;20245;-68
2021/12/18 04:52:51;;;;;;;6.63;2.83;;;6.50;99.90;;;;;;5072942;28;20202;-68
2021/12/18 04:55:17;;;;;;;3.93;2.37;;;6.50;99.90;;;;;;5054103;28;20179;-68
2021/12/18 04:57:42;;;;;;;3.77;2.40;;;6.50;99.90;;;;;;5071368;28;20179;-67
2021/12/18 05:00:12;;;;;;;3.57;2.13;;;6.50;99.90;;;;;;5074031;28;20167;-68
2021/12/18 05:02:41;;;;;;;5.93;2.67;;;6.50;99.90;;;;;;5079622;28;20183;-68
2021/12/18 05:05:08;;;;;;;5.00;2.37;;;6.50;99.90;;;;;;5086122;28;20258;-68
2021/12/18 05:07:33;;;;;;;5.07;2.30;;;6.50;99.90;;;;;;5072071;28;20179;-68
2021/12/18 05:09:59;;;;;;;3.63;2.40;;;6.50;99.90;;;;;;5071844;28;20215;-68
2021/12/18 05:12:25;;;;;;;3.87;2.73;;;6.50;99.90;;;;;;5054113;28;20203;-68
2021/12/18 05:14:50;;;;;;;4.87;2.67;;;6.50;99.90;;;;;;5071766;28;20171;-68
2021/12/18 05:17:16;;;;;;;4.67;3.27;;;6.50;99.90;;;;;;5072095;28;20535;-68
2021/12/18 05:19:42;;;;;;;4.00;2.70;;;6.50;99.90;;;;;;5071526;28;20659;-68
2021/12/18 05:22:07;;;;;;;9.13;3.73;;;6.50;99.90;;;;;;5071770;28;20201;-68
2021/12/18 05:24:33;;;;;;;4.43;3.03;;;6.50;99.90;;;;;;5071590;28;20175;-69
2021/12/18 05:26:58;;;;;;;4.30;2.57;;;6.50;99.90;;;;;;5071711;28;20174;-67
2021/12/18 05:29:25;;;;;;;4.03;2.93;;;6.50;99.90;;;;;;5071252;28;20261;-68
2021/12/18 05:31:50;;;;;;;3.97;2.63;;;6.50;99.90;;;;;;5071461;28;20209;-68
2021/12/18 05:34:22;;;;;;;4.80;2.80;;;6.60;99.90;;;;;;5053605;28;20531;-67
2021/12/18 05:39:21;;;;;;;4.27;2.47;;;6.60;99.90;;;;;;5071140;28;20240;-68
2021/12/18 05:41:50;;;;;;;8.37;4.07;;;6.60;99.90;;;;;;5053435;28;20627;-68
2021/12/18 05:44:17;;;;;;;5.23;3.60;;;6.60;99.90;;;;;;5071467;28;20163;-68
2021/12/18 05:46:43;;;;;;;6.57;3.97;;;6.60;99.90;;;;;;5071694;28;20706;-69
2021/12/18 05:49:09;;;;;;;5.50;3.60;;;6.60;99.90;;;;;;5071082;28;20632;-68
2021/12/18 05:51:34;;;;;;;4.00;3.10;;;6.50;99.90;;;;;;5071478;28;20194;-68
2021/12/18 05:54:00;;;;;;;5.80;2.73;;;6.60;99.90;;;;;;5071399;28;20277;-68
2021/12/18 05:56:25;;;;;;;7.20;3.70;;;6.50;99.90;;;;;;5071326;28;20216;-68
2021/12/18 05:58:51;;;;;;;5.40;3.50;;;6.50;99.90;;;;;;5071114;28;20246;-68
2021/12/18 06:01:18;;;;;;;5.87;3.50;;;6.50;99.90;;;;;;5071418;28;20534;-68
2021/12/18 06:03:44;;;;;;;8.43;3.93;;;6.50;99.90;;;;;;5071304;28;20182;-69
2021/12/18 06:06:10;;;;;;;8.17;4.77;;;6.50;99.90;;;;;;5071307;28;20167;-68
2021/12/18 06:08:37;;;;;;;5.13;3.70;;;6.50;99.90;;;;;;5054336;28;20171;-68
2021/12/18 06:11:11;;;;;;;5.33;3.20;;;6.50;99.90;;;;;;5074857;28;20209;-68
2021/12/18 06:13:36;;;;;;;7.80;3.67;;;6.50;99.90;;;;;;5075435;28;20661;-69
2021/12/18 06:16:05;;;;;;;8.00;4.13;;;6.50;99.90;;;;;;5075888;28;20202;-68
2021/12/18 06:18:35;;;;;;;10.23;5.47;;;6.60;99.90;;;;;;5083793;28;20189;-69
2021/12/18 06:21:01;;;;;;;5.77;3.70;;;6.60;99.90;;;;;;5077872;28;20194;-68
2021/12/18 06:23:27;;;;;;;6.10;3.83;;;6.50;99.90;;;;;;5084522;28;20179;-68
2021/12/18 06:25:53;;;;;;;5.40;3.03;;;6.50;99.90;;;;;;5056931;28;20197;-68
2021/12/18 06:28:18;;;;;;;6.13;3.63;;;6.50;99.90;;;;;;5056828;28;20261;-68
2021/12/18 06:30:44;;;;;;;9.43;5.43;;;6.50;99.90;;;;;;5074946;28;20191;-69
2021/12/18 06:33:09;;;;;;;5.30;3.13;;;6.50;99.90;;;;;;5075007;28;20274;-68
2021/12/18 06:35:35;;;;;;;5.53;3.20;;;6.40;99.90;;;;;;5056910;28;20228;-68
2021/12/18 06:38:01;;;;;;;4.70;2.83;;;6.40;99.90;;;;;;5074691;28;20178;-68
2021/12/18 06:40:26;;;;;;;6.13;3.73;;;6.50;99.90;;;;;;5074305;28;20218;-69
2021/12/18 06:42:52;;;;;;;5.00;3.07;;;6.40;99.90;;;;;;5074864;28;20236;-69
2021/12/18 06:45:17;;;;;;;4.57;2.90;;;6.50;99.90;;;;;;5056677;28;20636;-68
2021/12/18 06:47:43;;;;;;;5.57;2.50;;;6.50;99.90;;;;;;5074589;28;20250;-68
2021/12/18 06:50:09;;;;;;;7.70;4.10;;;6.50;99.90;;;;;;5074539;28;20270;-68
2021/12/18 06:52:35;;;;;;;7.27;3.47;;;6.50;99.90;;;;;;5056608;28;20195;-68
2021/12/18 06:55:00;;;;;;;4.97;2.90;;;6.50;99.90;;;;;;5056301;28;20514;-69
2021/12/18 06:57:26;;;;;;;4.47;2.97;;;6.50;99.90;;;;;;5074526;28;20170;-69
2021/12/18 06:59:52;;;;;;;4.73;2.93;;;6.50;99.90;;;;;;5056027;28;20637;-68
2021/12/18 07:02:18;;;;;;;4.23;2.70;;;6.50;99.90;;;;;;5074652;28;20191;-68
2021/12/18 07:04:44;;;;;;;6.60;4.17;;;6.50;99.90;;;;;;5074188;28;20185;-69
2021/12/18 07:07:09;;;;;;;4.40;3.00;;;6.60;99.90;;;;;;5056370;28;20668;-69
2021/12/18 07:09:35;;;;;;;9.13;5.17;;;6.60;99.90;;;;;;5073781;28;20167;-69
2021/12/18 07:12:00;;;;;;;4.10;2.90;;;6.60;99.90;;;;;;5074053;28;20207;-69
2021/12/18 07:14:26;;;;;;;5.00;3.20;;;6.50;99.90;;;;;;5074324;28;20240;-68
2021/12/18 07:16:51;;;;;;;5.83;3.53;;;6.50;99.90;;;;;;5074185;28;20173;-69
2021/12/18 07:19:17;;;;;;;7.47;4.40;;;6.50;99.90;;;;;;5073796;28;20166;-69
2021/12/18 07:21:42;;;;;;;8.53;4.73;;;6.50;99.90;;;;;;5073256;28;20225;-68
2021/12/18 07:24:08;;;;;;;5.80;4.23;;;6.40;99.90;;;;;;5073855;28;20710;-68
2021/12/18 07:26:34;;;;;;;4.97;3.60;;;6.50;99.90;;;;;;5074046;28;20175;-69
2021/12/18 07:29:00;;;;;;;5.50;3.87;;;6.50;99.90;;;;;;5073423;28;20175;-69
2021/12/18 07:31:26;;;;;;;6.13;4.00;;;6.50;99.90;;;;;;5074229;28;20195;-68
2021/12/18 07:33:52;;;;;;;9.57;4.80;;;6.50;99.90;;;;;;5073686;28;20206;-68
2021/12/18 07:36:17;;;;;;;5.27;3.70;;;6.50;99.90;;;;;;5055652;28;20200;-68
2021/12/18 07:38:44;;;;;;;8.00;4.60;;;6.50;99.90;;;;;;5073396;28;20175;-69
2021/12/18 07:41:10;;;;;;;5.67;3.90;;;6.50;99.90;;;;;;5055526;28;20219;-68
2021/12/18 07:43:36;;;;;;;7.37;4.27;;;6.50;99.90;;;;;;5055840;28;20266;-68
2021/12/18 07:46:01;;;;;;;6.37;4.50;;;6.50;99.90;;;;;;5073525;28;20213;-69
2021/12/18 07:48:27;;;;;;;6.87;4.80;;;6.50;99.90;;;;;;5055410;28;20171;-68
2021/12/18 07:50:53;;;;;;;7.13;4.40;;;6.50;99.90;;;;;;5073065;28;20530;-68
2021/12/18 07:53:19;;;;;;;6.13;4.23;;;6.50;99.90;;;;;;5073514;28;20570;-68
2021/12/18 07:55:44;;;;;;;7.70;5.03;;;6.50;99.90;;;;;;5085901;28;20231;-67
2021/12/18 07:58:10;;;;;;;7.87;4.87;;;6.40;99.90;;;;;;5086342;28;20258;-69
2021/12/18 08:00:37;;;;;;;5.57;3.80;;;6.40;99.90;;;;;;5073229;28;20183;-69
2021/12/18 08:03:03;;;;;;;6.77;3.93;;;6.30;99.90;;;;;;5055319;28;20202;-69
2021/12/18 08:05:28;;;;;;;6.40;4.10;;;6.30;99.90;;;;;;5073100;28;20182;-69
2021/12/18 08:07:54;;;;;;;5.77;3.97;;;6.40;99.90;;;;;;5054976;28;20183;-69
2021/12/18 08:10:19;;;;;;;6.03;3.73;;;6.40;99.90;;;;;;5054866;28;20220;-69
2021/12/18 08:12:45;;;;;;;6.60;3.73;;;6.30;99.90;;;;;;5055210;28;20194;-69
2021/12/18 08:15:12;;;;;;;4.23;2.93;;;6.30;99.90;;;;;;5088063;28;20162;-69
2021/12/18 08:17:38;;;;;;;4.47;2.80;;;6.30;99.90;;;;;;5092634;28;20182;-70
2021/12/18 08:20:05;;;;;;;4.30;2.97;;;6.30;99.90;;;;;;5078318;28;20175;-70
2021/12/18 08:22:30;;;;;;;4.53;2.90;;;6.20;99.90;;;;;;5072994;28;20175;-70
2021/12/18 08:24:58;;;;;;;4.53;3.33;;;6.20;99.90;;;;;;5054828;28;20175;-70
2021/12/18 08:27:24;;;;;;;5.47;3.33;;;6.30;99.90;;;;;;5056630;28;20170;-67
2021/12/18 08:29:50;;;;;;;4.40;2.70;;;6.30;99.90;;;;;;5077691;28;20654;-68
2021/12/18 08:32:15;;;;;;;6.43;3.17;;;6.30;99.90;;;;;;5078121;28;20283;-70
2021/12/18 08:34:41;;;;;;;6.20;3.10;;;6.30;99.90;;;;;;5089865;28;20179;-67
2021/12/18 08:37:06;;;;;;;4.77;2.50;;;6.30;99.90;;;;;;5072461;28;20258;-70
2021/12/18 08:39:32;;;;;;;3.60;2.47;;;6.40;99.90;;;;;;5072052;28;20163;-68
2021/12/18 08:42:02;;;;;;;4.97;2.60;;;6.40;99.90;;;;;;5072498;28;20207;-67
2021/12/18 08:44:30;;;;;;;4.57;2.70;;;6.40;99.90;;;;;;5054616;28;20536;-70
2021/12/18 08:46:56;;;;;;;4.03;2.90;;;6.40;99.90;;;;;;5072489;28;20175;-69
2021/12/18 08:49:21;;;;;;;4.37;2.80;;;6.50;99.90;;;;;;5071969;28;20551;-68
2021/12/18 08:51:47;;;;;;;4.20;2.90;;;6.50;99.90;;;;;;5054654;28;20191;-68
2021/12/18 08:54:12;;;;;;;3.43;2.33;;;6.50;99.90;;;;;;5054410;28;20249;-69
2021/12/18 08:56:38;;;;;;;4.63;2.37;;;6.50;99.90;;;;;;5071569;28;20178;-69
2021/12/18 08:59:04;;;;;;;4.70;2.50;;;6.40;99.90;;;;;;5072061;28;20167;-68
2021/12/18 09:01:30;;;;;;;4.33;2.50;;;6.50;99.90;;;;;;5083575;28;20240;-69
2021/12/18 09:03:56;;;;;;;6.83;3.87;;;6.50;99.90;;;;;;5078968;28;20178;-69
2021/12/18 09:06:22;;;;;;;4.33;2.83;;;6.50;99.90;;;;;;5091112;28;20193;-69
2021/12/18 09:08:48;;;;;;;4.47;3.00;;;6.50;99.90;;;;;;5087696;28;20256;-69
2021/12/18 09:11:15;;;;;;;5.20;3.13;;;6.40;99.90;;;;;;5095479;28;20210;-68
2021/12/18 09:13:40;;;;;;;4.80;2.73;;;6.40;99.90;;;;;;5086603;28;20217;-68
2021/12/18 09:16:06;;;;;;;8.17;3.77;;;6.50;99.90;;;;;;5059839;28;20236;-67
2021/12/18 09:18:32;;;;;;;4.97;3.43;;;6.50;99.90;;;;;;5090077;28;20584;-68
2021/12/18 09:20:57;;;;;;;11.13;6.77;;;6.50;99.90;;;;;;5077440;28;20202;-68
2021/12/18 09:23:23;;;;;;;6.90;4.43;;;6.50;99.90;;;;;;5068093;28;20175;-68
2021/12/18 09:25:49;;;;;;;17.27;8.83;;;6.70;99.90;;;;;;5086014;28;20220;-68
2021/12/18 09:28:15;;;;;;;6.97;3.90;;;6.70;99.90;;;;;;5077125;28;20204;-68
2021/12/18 09:30:40;;;;;;;9.20;5.33;;;6.80;99.90;;;;;;5088586;28;20241;-68
2021/12/18 09:33:07;;;;;;;8.10;4.70;;;6.80;99.90;;;;;;5080142;28;20253;-69
2021/12/18 09:35:33;;;;;;;7.17;4.27;;;6.80;99.90;;;;;;5089843;28;20702;-69
2021/12/18 09:37:58;;;;;;;21.53;12.50;;;6.90;99.90;;;;;;5088548;28;20281;-69
2021/12/18 09:40:24;;;;;;;20.50;12.43;;;6.80;99.90;;;;;;5085022;28;20212;-69
2021/12/18 09:42:50;;;;;;;16.43;9.73;;;6.90;99.90;;;;;;5087531;28;20178;-69
2021/12/18 09:45:16;;;;;;;27.77;14.70;;;6.90;99.90;;;;;;5063222;28;20225;-69
2021/12/18 09:47:44;;;;;;;9.57;5.63;;;7.00;99.90;;;;;;5091273;28;20178;-69
2021/12/18 09:50:10;;;;;;;7.93;5.13;;;7.00;99.90;;;;;;5090818;28;20198;-69
2021/12/18 09:52:36;;;;;;;7.17;4.57;;;7.00;99.90;;;;;;5084784;28;20233;-70
2021/12/18 09:55:05;;;;;;;6.30;4.30;;;7.00;99.90;;;;;;5073271;28;20201;-69
2021/12/18 09:57:31;;;;;;;7.47;4.77;;;7.00;99.90;;;;;;5083245;28;20190;-68
2021/12/18 09:59:57;;;;;;;9.77;5.50;;;7.00;99.90;;;;;;5086003;28;20167;-68
2021/12/18 10:02:22;;;;;;;8.63;4.73;;;7.00;99.90;;;;;;5075904;28;20246;-68
2021/12/18 10:04:48;;;;;;;6.63;4.50;;;7.00;99.90;;;;;;5090044;28;20178;-68
2021/12/18 10:07:18;;;;;;;7.43;4.53;;;7.00;99.90;;;;;;5077744;28;20186;-68
2021/12/18 10:09:45;;;;;;;7.30;4.70;;;7.00;99.90;;;;;;5069602;28;20639;-68
2021/12/18 10:12:31;;;;;;;8.90;4.80;;;7.00;99.90;;;;;;5097670;23;20211;-68
2021/12/18 10:15:13;;;;;;;6.93;4.20;;;7.00;99.90;;;;;;5053365;28;20303;-68
2021/12/18 10:17:42;;;;;;;8.83;4.77;;;7.10;99.90;;;;;;5071211;28;20566;-68
2021/12/18 10:20:10;;;;;;;7.30;5.13;;;7.10;99.90;;;;;;5071067;28;20247;-70
2021/12/18 10:22:51;;;;;;;10.50;4.97;;;7.10;99.90;;;;;;5041094;28;20204;-69
2021/12/18 10:25:29;;;;;;;7.27;4.83;;;7.10;99.90;;;;;;5031048;28;20198;-68
2021/12/18 10:27:58;;;;;;;7.50;4.70;;;7.20;99.90;;;;;;5013525;28;20251;-71
2021/12/18 10:30:25;;;;;;;7.73;5.20;;;7.30;99.90;;;;;;5024060;28;20165;-73
2021/12/18 10:33:02;;;;;;;9.10;5.13;;;7.30;99.90;;;;;;5021981;28;20212;-73
2021/12/18 10:35:40;;;;;;;6.87;4.13;;;7.40;99.90;;;;;;5050928;28;20214;-68
2021/12/18 10:38:07;;;;;;;5.67;3.07;;;7.30;99.90;;;;;;5050175;28;20183;-69
2021/12/18 10:40:44;;;;;;;5.87;3.07;;;7.30;99.90;;;;;;5032938;28;20178;-68
2021/12/18 10:43:10;;;;;;;4.67;3.07;;;7.20;99.90;;;;;;5033155;28;20199;-68
2021/12/18 10:45:36;;;;;;;7.93;3.67;;;7.20;99.90;;;;;;5050649;28;20229;-68
2021/12/18 10:48:08;;;;;;;5.47;3.00;;;7.10;99.90;;;;;;5050558;28;20168;-69
2021/12/18 10:50:35;;;;;;;5.27;3.23;;;7.00;99.90;;;;;;5032720;28;20172;-69
2021/12/18 10:53:10;;;;;;;6.47;3.93;;;7.00;99.90;;;;;;5050343;28;20257;-69
2021/12/18 10:56:08;;;;;;;7.93;3.23;;;7.10;99.90;;;;;;5051749;28;20182;-72
2021/12/18 10:58:38;;;;;;;8.07;4.00;;;7.10;99.90;;;;;;4993121;28;20191;-70
2021/12/18 11:01:05;;;;;;;7.73;3.70;;;7.10;99.90;;;;;;5054339;28;20175;-69
2021/12/18 11:03:34;;;;;;;11.33;6.00;;;7.10;99.90;;;;;;5054262;28;20179;-70
2021/12/18 11:06:21;;;;;;;5.53;3.10;;;7.20;99.90;;;;;;5036760;28;20171;-69
2021/12/18 11:08:51;;;;;;;5.00;3.20;;;7.30;99.90;;;;;;5054214;28;20167;-71
2021/12/18 11:14:07;;;;;;;4.67;2.90;;;7.30;99.90;;;;;;5054215;28;20677;-70
2021/12/18 11:16:36;;;;;;;6.13;3.47;;;7.30;99.90;;;;;;5054211;28;20198;-73
2021/12/18 11:19:13;;;;;;;6.97;3.47;;;7.30;99.90;;;;;;5039482;28;20175;-71
2021/12/18 11:21:45;;;;;;;5.67;2.73;;;7.30;99.90;;;;;;5054135;28;20699;-70
2021/12/18 11:24:11;;;;;;;6.60;3.67;;;7.20;99.90;;;;;;5053663;28;20184;-71
2021/12/18 11:26:55;;;;;;;5.07;2.97;;;7.20;99.90;;;;;;5035966;28;20175;-70
2021/12/18 11:29:25;;;;;;;6.83;2.60;;;7.20;99.90;;;;;;5053588;28;20167;-70
2021/12/18 11:31:51;;;;;;;7.20;2.90;;;7.20;99.90;;;;;;5052374;28;20211;-70
2021/12/18 11:34:17;;;;;;;5.13;2.90;;;7.30;99.90;;;;;;5028069;28;20254;-70
2021/12/18 11:36:44;;;;;;;3.93;2.63;;;7.30;99.90;;;;;;5052775;28;20584;-72
2021/12/18 11:39:11;;;;;;;4.17;2.40;;;7.30;99.90;;;;;;5021362;28;20200;-70
2021/12/18 11:41:38;;;;;;;3.73;2.23;;;7.30;99.90;;;;;;5050772;28;20183;-70
2021/12/18 11:44:27;;;;;;;7.37;3.13;;;7.30;99.90;;;;;;5053674;28;20179;-70
2021/12/18 11:46:54;;;;;;;6.23;3.37;;;7.20;99.90;;;;;;5036084;28;20187;-70
2021/12/18 11:49:21;;;;;;;5.07;2.80;;;7.30;99.90;;;;;;5042567;28;20594;-71
2021/12/18 11:52:03;;;;;;;5.40;2.30;;;7.30;99.90;;;;;;5033524;28;20262;-70
2021/12/18 11:54:49;;;;;;;17.27;8.87;;;7.30;99.90;;;;;;5017660;28;20192;-69
2021/12/18 11:57:39;;;;;;;7.13;3.67;;;7.40;99.90;;;;;;5053470;28;20178;-69
2021/12/18 12:00:29;;;;;;;3.37;2.33;;;7.40;99.90;;;;;;5053119;28;20172;-69
2021/12/18 12:02:57;;;;;;;6.00;3.37;;;7.40;99.90;;;;;;5039088;28;20211;-70
2021/12/18 12:05:39;;;;;;;3.70;2.07;;;7.40;99.90;;;;;;5051145;28;20184;-69
2021/12/18 12:08:25;;;;;;;11.33;4.33;;;7.30;99.90;;;;;;5032709;28;20172;-69
2021/12/18 12:11:16;;;;;;;9.63;4.67;;;7.40;99.90;;;;;;5033254;28;20169;-70
2021/12/18 12:14:16;;;;;;;10.27;3.37;;;7.60;99.90;;;;;;5015585;28;20576;-73
2021/12/18 12:16:44;;;;;;;4.83;2.90;;;7.90;99.90;;;;;;5064235;28;20171;-75
2021/12/18 12:19:12;;;;;;;18.37;9.90;;;8.00;99.90;;;;;;5093110;28;20643;-74
2021/12/18 12:21:45;;;;;;;4.07;2.17;;;8.00;99.90;;;;;;5093033;28;20678;-71
2021/12/18 12:24:13;;;;;;;6.00;2.10;;;7.90;99.90;;;;;;5093320;28;20174;-73
2021/12/18 12:26:39;;;;;;;4.10;2.37;;;7.90;99.90;;;;;;5077616;28;20179;-69
2021/12/18 12:29:06;;;;;;;25.77;14.50;;;7.80;99.90;;;;;;5058547;28;20183;-71
2021/12/18 12:31:33;;;;;;;5.67;2.90;;;7.70;99.90;;;;;;5088032;28;20198;-69
2021/12/18 12:34:22;;;;;;;3.77;2.63;;;7.70;99.90;;;;;;5093117;28;20202;-69
2021/12/18 12:36:48;;;;;;;5.67;3.53;;;7.60;99.90;;;;;;5084518;28;20178;-70
2021/12/18 12:39:15;;;;;;;3.23;2.30;;;7.70;99.90;;;;;;5072211;28;20175;-69
2021/12/18 12:41:47;;;;;;;2.53;1.70;;;7.70;99.90;;;;;;5054691;28;20199;-72
2021/12/18 12:44:24;;;;;;;4.03;1.90;;;7.70;99.90;;;;;;5055030;28;20534;-69
2021/12/18 12:47:12;;;;;;;6.87;3.93;;;7.60;99.90;;;;;;5054616;28;20181;-69
2021/12/18 12:49:37;;;;;;;8.53;4.63;;;7.60;99.90;;;;;;5053912;28;20592;-70
2021/12/18 12:52:08;;;;;;;3.30;2.03;;;7.60;99.90;;;;;;5072405;28;20294;-72
2021/12/18 12:54:47;;;;;;;2.77;1.90;;;7.70;99.90;;;;;;5053984;28;20175;-70
2021/12/18 12:57:26;;;;;;;3.17;1.73;;;7.60;99.90;;;;;;5054387;28;20185;-69
2021/12/18 12:59:58;;;;;;;3.17;1.53;;;7.70;99.90;;;;;;5053718;28;20170;-71
2021/12/18 13:02:31;;;;;;;3.03;1.40;;;7.70;99.90;;;;;;5072154;28;20206;-69
2021/12/18 13:05:11;;;;;;;3.07;1.80;;;7.60;99.90;;;;;;5054403;28;20182;-72
2021/12/18 13:07:46;;;;;;;2.27;1.40;;;7.60;99.90;;;;;;5071961;28;20321;-71
2021/12/18 13:10:35;;;;;;;2.53;1.73;;;7.60;99.90;;;;;;5072024;28;20174;-70
2021/12/18 13:13:06;;;;;;;2.97;1.37;;;7.60;99.90;;;;;;5071964;28;20210;-70
2021/12/18 13:16:09;;;;;;;2.20;1.20;;;7.60;99.90;;;;;;5054100;28;20175;-71
2021/12/18 13:18:46;;;;;;;2.43;1.50;;;7.70;99.90;;;;;;5037326;28;20190;-71
2021/12/18 13:21:20;;;;;;;2.73;1.33;;;7.70;99.90;;;;;;5092977;28;20158;-69
2021/12/18 13:23:45;;;;;;;2.40;1.30;;;7.60;99.90;;;;;;5093950;28;20170;-71
2021/12/18 13:26:14;;;;;;;1.77;1.23;;;7.60;99.90;;;;;;5087475;28;20258;-71
2021/12/18 13:28:55;;;;;;;2.80;1.67;;;7.50;99.90;;;;;;5073864;28;20175;-72
2021/12/18 13:31:23;;;;;;;2.03;1.27;;;7.50;99.90;;;;;;5072171;28;20643;-71
2021/12/18 13:33:55;;;;;;;1.73;1.30;;;7.50;99.90;;;;;;5071699;28;20233;-70
2021/12/18 13:36:21;;;;;;;1.53;1.27;;;7.50;99.90;;;;;;5076401;28;20556;-71
2021/12/18 13:38:46;;;;;;;1.27;0.97;;;7.60;99.90;;;;;;5093486;28;20174;-69
2021/12/18 13:41:14;;;;;;;1.40;1.00;;;7.50;99.90;;;;;;5092718;28;20185;-70
2021/12/18 13:43:41;;;;;;;2.50;1.70;;;7.50;99.90;;;;;;5091958;28;20502;-69
2021/12/18 13:46:12;;;;;;;1.60;1.20;;;7.50;99.90;;;;;;5073604;28;20620;-72